createdAt,value
2022-08-18T00:00:38.429Z,18.70
2022-08-18T00:03:57.461Z,18.50
2022-08-18T00:06:53.048Z,18.40
2022-08-18T00:09:50.714Z,18.60
2022-08-18T00:12:47.613Z,18.80
2022-08-18T00:15:49.251Z,18.80
2022-08-18T00:18:46.370Z,18.80
2022-08-18T00:21:43.220Z,18.70
2022-08-18T00:24:40.100Z,18.80
2022-08-18T00:27:45.936Z,18.70
2022-08-18T00:30:42.836Z,18.80
2022-08-18T00:33:39.675Z,18.80
2022-08-18T00:36:36.634Z,18.60
2022-08-18T00:39:37.176Z,18.20
2022-08-18T00:42:46.232Z,18.40
2022-08-18T00:45:43.779Z,18.50
2022-08-18T00:48:40.877Z,18.50
2022-08-18T00:51:51.185Z,18.40
2022-08-18T00:54:49.810Z,18.30
2022-08-18T00:57:50.809Z,18.40
2022-08-18T01:00:51.178Z,18.40
2022-08-18T01:03:53.026Z,18.50
2022-08-18T01:07:00.668Z,18.60
2022-08-18T01:10:01.385Z,18.50
2022-08-18T01:12:58.912Z,18.50
2022-08-18T01:15:56.294Z,18.60
2022-08-18T01:19:12.410Z,18.50
2022-08-18T01:22:43.592Z,18.30
2022-08-18T01:25:59.606Z,18.30
2022-08-18T01:29:07.057Z,18.30
2022-08-18T01:32:04.177Z,18.40
2022-08-18T01:35:01.071Z,18.40
2022-08-18T01:37:57.907Z,18.40
2022-08-18T01:41:22.243Z,18.40
2022-08-18T01:44:11.792Z,18.40
2022-08-18T01:47:11.570Z,18.50
2022-08-18T01:50:11.165Z,18.30
2022-08-18T01:53:10.654Z,18.20
2022-08-18T01:56:08.673Z,18.30
2022-08-18T01:59:07.462Z,18.40
2022-08-18T02:02:05.072Z,18.50
2022-08-18T02:05:12.081Z,18.50
2022-08-18T02:08:10.680Z,18.50
2022-08-18T02:11:08.309Z,18.50
2022-08-18T02:14:06.066Z,18.40
2022-08-18T02:17:05.298Z,18.40
2022-08-18T02:20:02.182Z,18.40
2022-08-18T02:23:02.658Z,18.30
2022-08-18T02:25:59.569Z,18.30
2022-08-18T02:28:56.829Z,18.40
2022-08-18T02:31:53.888Z,18.40
2022-08-18T02:34:50.728Z,18.50
2022-08-18T02:37:48.149Z,18.60
2022-08-18T02:40:46.506Z,18.50
2022-08-18T02:43:43.638Z,18.70
2022-08-18T02:46:40.521Z,18.90
2022-08-18T02:49:37.370Z,18.90
2022-08-18T02:52:35.532Z,18.80
2022-08-18T02:55:32.454Z,18.90
2022-08-18T02:58:33.575Z,18.90
2022-08-18T03:01:38.473Z,19.00
2022-08-18T03:04:36.337Z,18.70
2022-08-18T03:07:33.438Z,18.30
2022-08-18T03:10:32.350Z,18.30
2022-08-18T03:13:30.803Z,18.30
2022-08-18T03:16:32.712Z,18.40
2022-08-18T03:19:30.110Z,18.70
2022-08-18T03:22:28.083Z,18.70
2022-08-18T03:25:26.489Z,18.70
2022-08-18T03:28:23.461Z,18.50
2022-08-18T03:31:27.950Z,18.40
2022-08-18T03:34:25.064Z,18.50
2022-08-18T03:37:21.991Z,18.40
2022-08-18T03:40:19.086Z,18.30
2022-08-18T03:43:49.617Z,18.20
2022-08-18T03:46:33.428Z,18.20
2022-08-18T03:49:31.279Z,18.10
2022-08-18T03:52:28.146Z,18.10
2022-08-18T03:55:29.241Z,18.00
2022-08-18T03:58:26.412Z,18.10
2022-08-18T04:01:28.478Z,18.00
2022-08-18T04:04:28.827Z,18.10
2022-08-18T04:07:25.684Z,18.00
2022-08-18T04:10:26.570Z,18.10
2022-08-18T04:13:24.321Z,18.10
2022-08-18T04:16:21.368Z,18.10
2022-08-18T04:19:26.148Z,17.90
2022-08-18T04:22:25.596Z,17.90
2022-08-18T04:25:22.440Z,17.90
2022-08-18T04:28:19.293Z,17.90
2022-08-18T04:31:16.339Z,17.80
2022-08-18T04:34:13.835Z,17.80
2022-08-18T04:37:10.938Z,17.80
2022-08-18T04:40:08.885Z,17.80
2022-08-18T04:43:05.791Z,18.00
2022-08-18T04:46:03.166Z,17.90
2022-08-18T04:49:00.480Z,17.90
2022-08-18T04:52:26.899Z,17.80
2022-08-18T04:55:34.992Z,17.80
2022-08-18T04:58:31.897Z,17.90
2022-08-18T05:01:35.356Z,17.90
2022-08-18T05:04:32.252Z,18.00
2022-08-18T05:07:29.180Z,17.90
2022-08-18T05:10:26.033Z,17.90
2022-08-18T05:13:23.518Z,18.00
2022-08-18T05:16:27.443Z,18.20
2022-08-18T05:19:26.825Z,18.10
2022-08-18T05:22:28.413Z,18.10
2022-08-18T05:25:28.451Z,18.00
2022-08-18T05:28:26.189Z,18.00
2022-08-18T05:31:26.078Z,18.10
2022-08-18T05:34:23.002Z,18.10
2022-08-18T05:37:35.972Z,18.20
2022-08-18T05:40:34.621Z,18.20
2022-08-18T05:43:32.022Z,18.20
2022-08-18T05:46:56.009Z,18.20
2022-08-18T05:49:55.799Z,18.20
2022-08-18T05:52:58.308Z,18.30
2022-08-18T05:56:23.750Z,18.30
2022-08-18T05:59:34.211Z,18.40
2022-08-18T06:02:51.140Z,18.30
2022-08-18T06:06:01.351Z,18.40
2022-08-18T06:09:17.525Z,18.40
2022-08-18T06:12:46.601Z,18.40
2022-08-18T06:16:05.347Z,18.40
2022-08-18T06:19:28.107Z,18.40
2022-08-18T06:22:52.137Z,18.40
2022-08-18T06:26:19.791Z,18.50
2022-08-18T06:30:12.562Z,18.50
2022-08-18T06:33:29.699Z,18.50
2022-08-18T06:37:01.376Z,18.60
2022-08-18T06:39:58.540Z,18.80
2022-08-18T06:42:55.891Z,18.90
2022-08-18T06:45:56.767Z,18.90
2022-08-18T06:49:04.407Z,19.00
2022-08-18T06:52:34.127Z,19.00
2022-08-18T06:55:37.791Z,18.90
2022-08-18T06:58:34.686Z,18.90
2022-08-18T07:01:33.257Z,18.80
2022-08-18T07:04:38.065Z,18.80
2022-08-18T07:07:39.414Z,18.80
2022-08-18T07:10:52.171Z,18.70
2022-08-18T07:14:14.809Z,18.60
2022-08-18T07:17:22.281Z,18.50
2022-08-18T07:20:49.739Z,18.40
2022-08-18T07:24:25.286Z,18.30
2022-08-18T07:27:49.073Z,18.30
2022-08-18T07:31:06.433Z,18.20
2022-08-18T07:34:38.886Z,18.10
2022-08-18T07:37:58.843Z,17.90
2022-08-18T07:41:26.078Z,17.80
2022-08-18T07:44:48.790Z,17.80
2022-08-18T07:48:37.542Z,17.80
2022-08-18T07:51:43.803Z,17.80
2022-08-18T07:54:56.134Z,17.80
2022-08-18T07:58:11.879Z,18.00
2022-08-18T08:01:41.199Z,17.90
2022-08-18T08:04:49.413Z,17.90
2022-08-18T08:08:02.126Z,17.90
2022-08-18T08:11:20.384Z,17.90
2022-08-18T08:14:31.739Z,17.70
2022-08-18T08:17:58.188Z,17.70
2022-08-18T08:21:14.408Z,17.80
2022-08-18T08:24:27.129Z,17.70
2022-08-18T08:27:45.728Z,17.80
2022-08-18T08:31:33.422Z,17.80
2022-08-18T08:35:07.132Z,17.90
2022-08-18T08:38:39.184Z,17.90
2022-08-18T08:42:28.935Z,18.00
2022-08-18T08:45:33.871Z,18.00
2022-08-18T08:48:35.670Z,17.90
2022-08-18T08:51:44.784Z,18.00
2022-08-18T08:54:59.250Z,18.00
2022-08-18T08:58:21.914Z,18.30
2022-08-18T09:01:37.977Z,18.30
2022-08-18T09:05:13.737Z,18.40
2022-08-18T09:08:43.920Z,18.40
2022-08-18T09:12:02.952Z,18.50
2022-08-18T09:15:35.484Z,18.40
2022-08-18T09:19:02.890Z,18.40
2022-08-18T09:22:52.517Z,18.40
2022-08-18T09:25:58.526Z,18.60
2022-08-18T09:29:13.238Z,18.50
2022-08-18T09:32:18.981Z,18.70
2022-08-18T09:35:43.559Z,18.90
2022-08-18T09:39:10.701Z,19.10
2022-08-18T09:42:29.912Z,19.60
2022-08-18T09:45:33.379Z,20.20
2022-08-18T09:48:43.064Z,20.60
2022-08-18T09:51:41.186Z,20.90
2022-08-18T09:55:14.635Z,21.10
2022-08-18T09:58:50.462Z,21.00
2022-08-18T10:01:52.424Z,21.40
2022-08-18T10:04:51.365Z,21.30
2022-08-18T10:08:08.222Z,21.70
2022-08-18T10:11:58.121Z,22.00
2022-08-18T10:15:33.453Z,22.20
2022-08-18T10:18:50.549Z,22.20
2022-08-18T10:22:06.390Z,22.20
2022-08-18T10:25:23.014Z,22.50
2022-08-18T10:28:58.745Z,22.80
2022-08-18T10:32:05.220Z,22.90
2022-08-18T10:35:02.291Z,22.70
2022-08-18T10:38:00.637Z,22.50
2022-08-18T10:41:22.947Z,22.40
2022-08-18T10:44:29.146Z,21.90
2022-08-18T10:51:08.859Z,22.60
2022-08-18T10:54:29.406Z,22.50
2022-08-18T10:57:37.209Z,22.30
2022-08-18T11:00:48.424Z,22.30
2022-08-18T11:04:34.019Z,22.50
2022-08-18T11:07:35.617Z,22.70
2022-08-18T11:11:06.611Z,23.00
2022-08-18T11:14:31.830Z,22.90
2022-08-18T11:18:03.579Z,23.10
2022-08-18T11:24:55.099Z,23.70
2022-08-18T11:27:52.171Z,24.10
2022-08-18T11:30:54.915Z,24.60
2022-08-18T11:33:51.846Z,24.20
2022-08-18T11:37:04.997Z,24.40
2022-08-18T11:43:47.367Z,25.00
2022-08-18T11:46:47.549Z,25.10
2022-08-18T11:50:13.245Z,25.40
2022-08-18T11:53:58.043Z,26.00
2022-08-18T12:04:31.782Z,25.80
2022-08-18T12:07:35.297Z,26.00
2022-08-18T12:10:32.442Z,26.40
2022-08-18T12:13:29.708Z,26.70
2022-08-18T12:16:40.189Z,26.90
2022-08-18T12:19:43.642Z,27.40
2022-08-18T12:22:45.225Z,27.80
2022-08-18T12:25:43.340Z,27.30
2022-08-18T12:28:40.347Z,26.80
2022-08-18T12:31:42.465Z,27.20
2022-08-18T12:34:45.893Z,27.30
2022-08-18T12:38:11.148Z,27.10
2022-08-18T12:41:03.075Z,27.30
2022-08-18T12:44:00.105Z,27.40
2022-08-18T12:46:57.470Z,27.50
2022-08-18T12:49:56.801Z,27.60
2022-08-18T12:52:53.905Z,27.70
2022-08-18T12:55:52.859Z,27.30
2022-08-18T12:58:50.664Z,27.30
2022-08-18T13:01:47.552Z,27.00
2022-08-18T13:04:44.898Z,26.60
2022-08-18T13:07:44.298Z,26.50
2022-08-18T13:10:45.441Z,26.40
2022-08-18T13:13:44.382Z,26.80
2022-08-18T13:16:53.740Z,26.60
2022-08-18T13:19:51.959Z,26.50
2022-08-18T13:22:52.533Z,26.80
2022-08-18T13:25:50.292Z,26.80
2022-08-18T13:28:50.862Z,27.10
2022-08-18T13:31:58.172Z,27.30
2022-08-18T13:34:56.539Z,27.30
2022-08-18T13:37:55.265Z,27.60
2022-08-18T13:40:55.717Z,27.80
2022-08-18T13:43:52.583Z,27.30
2022-08-18T13:46:52.132Z,27.20
2022-08-18T13:49:58.206Z,26.90
2022-08-18T13:52:57.231Z,27.30
2022-08-18T13:55:57.376Z,27.10
2022-08-18T13:58:55.438Z,27.00
2022-08-18T14:01:53.328Z,27.20
2022-08-18T14:04:51.855Z,27.10
2022-08-18T14:07:49.174Z,26.50
2022-08-18T14:10:53.068Z,27.10
2022-08-18T14:13:49.982Z,27.10
2022-08-18T14:16:47.765Z,26.90
2022-08-18T14:20:03.121Z,27.30
2022-08-18T14:23:22.015Z,28.00
2022-08-18T14:26:40.392Z,28.50
2022-08-18T14:29:46.005Z,28.30
2022-08-18T14:32:51.314Z,28.40
2022-08-18T14:36:06.335Z,27.90
2022-08-18T14:39:06.054Z,28.00
2022-08-18T14:42:05.700Z,27.90
2022-08-18T14:45:18.032Z,28.10
2022-08-18T14:48:27.405Z,28.00
2022-08-18T14:51:27.211Z,27.90
2022-08-18T14:54:28.272Z,27.80
2022-08-18T14:57:25.807Z,27.70
2022-08-18T15:00:22.920Z,27.00
2022-08-18T15:03:28.228Z,27.10
2022-08-18T15:06:28.661Z,28.20
2022-08-18T15:09:27.261Z,28.00
2022-08-18T15:12:24.934Z,27.80
2022-08-18T15:15:22.843Z,27.60
2022-08-18T15:18:22.820Z,27.30
2022-08-18T15:21:38.987Z,27.60
2022-08-18T15:24:59.685Z,28.00
2022-08-18T15:27:58.113Z,27.70
2022-08-18T15:34:12.713Z,28.10
2022-08-18T15:37:10.173Z,27.70
2022-08-18T15:40:30.349Z,27.10
2022-08-18T15:43:32.704Z,27.50
2022-08-18T15:46:34.836Z,27.40
2022-08-18T15:49:33.801Z,26.70
2022-08-18T15:52:30.732Z,27.20
2022-08-18T15:55:32.989Z,26.90
2022-08-18T15:58:32.847Z,26.70
2022-08-18T16:01:33.015Z,26.60
2022-08-18T16:04:29.936Z,26.50
2022-08-18T16:07:40.074Z,26.50
2022-08-18T16:10:41.891Z,27.30
2022-08-18T16:13:39.946Z,27.40
2022-08-18T16:16:37.131Z,27.00
2022-08-18T16:19:34.025Z,27.00
2022-08-18T16:22:32.974Z,27.10
2022-08-18T16:25:29.844Z,27.30
2022-08-18T16:28:34.559Z,27.20
2022-08-18T16:31:32.284Z,27.30
2022-08-18T16:34:30.937Z,27.80
2022-08-18T16:37:28.097Z,27.30
2022-08-18T16:40:28.020Z,26.20
2022-08-18T16:43:27.172Z,25.90
2022-08-18T16:46:27.175Z,26.40
2022-08-18T16:49:24.031Z,25.60
2022-08-18T16:52:21.168Z,25.90
2022-08-18T16:55:18.140Z,25.50
2022-08-18T16:58:33.873Z,25.50
2022-08-18T17:01:49.692Z,25.60
2022-08-18T17:04:46.582Z,26.70
2022-08-18T17:07:43.672Z,26.10
2022-08-18T17:10:41.428Z,26.20
2022-08-18T17:13:40.127Z,25.90
2022-08-18T17:16:38.574Z,25.70
2022-08-18T17:19:35.503Z,25.30
2022-08-18T17:22:32.340Z,24.90
2022-08-18T17:25:30.860Z,24.70
2022-08-18T17:28:45.670Z,24.90
2022-08-18T17:31:56.630Z,25.40
2022-08-18T17:35:04.493Z,24.70
2022-08-18T17:38:29.793Z,24.60
2022-08-18T17:41:27.918Z,24.50
2022-08-18T17:44:31.245Z,24.70
2022-08-18T17:47:54.295Z,25.10
2022-08-18T17:51:32.507Z,25.40
2022-08-18T17:54:42.050Z,24.90
2022-08-18T17:57:58.651Z,24.50
2022-08-18T18:00:55.827Z,24.80
2022-08-18T18:03:53.902Z,24.00
2022-08-18T18:06:52.787Z,23.90
2022-08-18T18:10:26.318Z,23.70
2022-08-18T18:13:28.609Z,23.60
2022-08-18T18:16:29.569Z,23.30
2022-08-18T18:19:30.631Z,23.30
2022-08-18T18:22:29.751Z,23.60
2022-08-18T18:25:34.483Z,23.50
2022-08-18T18:28:35.953Z,23.90
2022-08-18T18:31:33.048Z,23.70
2022-08-18T18:34:39.312Z,23.50
2022-08-18T18:38:23.099Z,23.20
2022-08-18T18:41:27.837Z,23.30
2022-08-18T18:44:30.769Z,23.10
2022-08-18T18:47:57.676Z,23.20
2022-08-18T18:51:11.835Z,23.10
2022-08-18T18:54:49.796Z,22.80
2022-08-18T18:58:18.438Z,22.80
2022-08-18T19:01:39.102Z,22.70
2022-08-18T19:04:56.654Z,23.20
2022-08-18T19:08:12.806Z,23.50
2022-08-18T19:11:33.168Z,23.30
2022-08-18T19:14:39.355Z,22.80
2022-08-18T19:17:44.730Z,22.70
2022-08-18T19:22:02.201Z,22.60
2022-08-18T19:24:21.781Z,22.50
2022-08-18T19:27:42.827Z,22.50
2022-08-18T19:30:44.877Z,22.40
2022-08-18T19:33:50.796Z,22.90
2022-08-18T19:37:12.387Z,22.50
2022-08-18T19:40:24.068Z,22.60
2022-08-18T19:43:51.932Z,22.50
2022-08-18T19:46:54.389Z,23.10
2022-08-18T19:50:31.499Z,22.60
2022-08-18T19:54:13.294Z,22.40
2022-08-18T19:57:49.812Z,22.40
2022-08-18T20:00:49.532Z,22.20
2022-08-18T20:04:11.096Z,22.10
2022-08-18T20:07:47.185Z,22.10
2022-08-18T20:11:15.418Z,22.00
2022-08-18T20:14:16.798Z,22.40
2022-08-18T20:17:16.894Z,21.80
2022-08-18T20:20:17.551Z,21.70
2022-08-18T20:23:37.633Z,21.70
2022-08-18T20:26:40.037Z,21.70
2022-08-18T20:29:37.106Z,21.60
2022-08-18T20:32:35.684Z,21.70
2022-08-18T20:35:57.111Z,21.80
2022-08-18T20:38:58.190Z,21.50
2022-08-18T20:41:55.859Z,21.70
2022-08-18T20:44:59.414Z,21.80
2022-08-18T20:48:16.316Z,21.70
2022-08-18T20:51:19.788Z,21.50
2022-08-18T20:55:03.045Z,21.30
2022-08-18T20:58:20.601Z,21.30
2022-08-18T21:01:18.187Z,21.10
2022-08-18T21:04:15.067Z,21.30
2022-08-18T21:07:37.860Z,21.40
2022-08-18T21:10:34.931Z,21.50
2022-08-18T21:13:42.429Z,21.40
2022-08-18T21:16:45.493Z,21.30
2022-08-18T21:19:43.370Z,21.20
2022-08-18T21:22:44.916Z,21.20
2022-08-18T21:25:55.731Z,21.20
2022-08-18T21:29:14.445Z,21.30
2022-08-18T21:32:37.009Z,21.20
2022-08-18T21:35:38.070Z,21.10
2022-08-18T21:38:36.350Z,21.10
2022-08-18T21:41:40.102Z,21.00
2022-08-18T21:44:44.384Z,21.00
2022-08-18T21:48:10.893Z,20.90
2022-08-18T21:51:08.311Z,20.90
2022-08-18T21:54:05.431Z,20.90
2022-08-18T21:57:26.720Z,21.00
2022-08-18T22:00:42.886Z,21.00
2022-08-18T22:04:24.572Z,21.00
2022-08-18T22:07:34.546Z,20.90
2022-08-18T22:10:51.282Z,21.10
2022-08-18T22:14:00.483Z,21.20
2022-08-18T22:17:43.233Z,21.20
2022-08-18T22:20:52.592Z,21.10
2022-08-18T22:24:10.572Z,20.90
2022-08-18T22:27:19.548Z,20.90
2022-08-18T22:30:16.484Z,20.90
2022-08-18T22:33:13.335Z,20.90
2022-08-18T22:36:15.204Z,21.00
2022-08-18T22:39:18.151Z,20.80
2022-08-18T22:42:17.878Z,20.70
2022-08-18T22:45:14.768Z,20.60
2022-08-18T22:48:11.632Z,20.70
2022-08-18T22:51:09.013Z,20.70
2022-08-18T22:54:09.873Z,20.70
2022-08-18T22:57:06.729Z,20.60
2022-08-18T23:00:12.815Z,20.50
2022-08-18T23:03:09.793Z,20.70
2022-08-18T23:06:08.917Z,20.60
2022-08-18T23:09:06.108Z,20.70
2022-08-18T23:12:13.539Z,20.70
2022-08-18T23:15:11.550Z,20.70
2022-08-18T23:18:08.408Z,20.60
2022-08-18T23:21:05.477Z,20.60
2022-08-18T23:24:04.840Z,20.50
2022-08-18T23:27:01.726Z,20.50
2022-08-18T23:29:59.586Z,20.50
2022-08-18T23:32:56.406Z,20.50
2022-08-18T23:35:53.799Z,20.40
2022-08-18T23:38:50.628Z,20.50
2022-08-18T23:41:47.878Z,20.40
2022-08-18T23:44:45.775Z,20.40
2022-08-18T23:47:43.393Z,20.40
2022-08-18T23:50:43.351Z,20.30
2022-08-18T23:53:40.494Z,20.40
2022-08-18T23:56:38.006Z,20.40
2022-08-18T23:59:34.881Z,20.40
